sensor_id;sensor_type;location;lat;lon;timestamp;temperature;humidity
80192;SHT31;69513;51.990;5.704;2023-08-30T05:40:56;17.6;59.4
80192;SHT31;69513;51.990;5.704;2023-08-30T05:43:26;17.5;59.3
80192;SHT31;69513;51.990;5.704;2023-08-30T05:45:56;17.4;59.7
80192;SHT31;69513;51.990;5.704;2023-08-30T05:48:32;17.2;59.9
80192;SHT31;69513;51.990;5.704;2023-08-30T05:51:02;17.1;60.6
80192;SHT31;69513;51.990;5.704;2023-08-30T05:53:32;17.0;61.6
80192;SHT31;69513;51.990;5.704;2023-08-30T05:56:04;16.8;62.7
80192;SHT31;69513;51.990;5.704;2023-08-30T05:58:34;16.7;62.8
80192;SHT31;69513;51.990;5.704;2023-08-30T06:01:05;16.6;64.1
80192;SHT31;69513;51.990;5.704;2023-08-30T06:03:36;16.6;64.5
80192;SHT31;69513;51.990;5.704;2023-08-30T06:06:06;16.5;65.0
80192;SHT31;69513;51.990;5.704;2023-08-30T06:08:37;16.4;65.4
80192;SHT31;69513;51.990;5.704;2023-08-30T06:11:06;16.4;65.8
80192;SHT31;69513;51.990;5.704;2023-08-30T06:13:37;16.3;66.2
80192;SHT31;69513;51.990;5.704;2023-08-30T06:16:06;16.3;66.7
80192;SHT31;69513;51.990;5.704;2023-08-30T06:18:38;16.3;66.3
80192;SHT31;69513;51.990;5.704;2023-08-30T06:21:09;16.2;67.1
80192;SHT31;69513;51.990;5.704;2023-08-30T06:23:39;16.2;67.7
80192;SHT31;69513;51.990;5.704;2023-08-30T06:26:09;16.2;67.4
80192;SHT31;69513;51.990;5.704;2023-08-30T06:28:39;16.2;67.8
80192;SHT31;69513;51.990;5.704;2023-08-30T06:31:11;16.1;68.5
80192;SHT31;69513;51.990;5.704;2023-08-30T06:33:41;16.1;68.6
80192;SHT31;69513;51.990;5.704;2023-08-30T06:36:13;16.1;68.4
80192;SHT31;69513;51.990;5.704;2023-08-30T06:38:45;16.1;68.7
80192;SHT31;69513;51.990;5.704;2023-08-30T06:41:15;16.1;68.9
80192;SHT31;69513;51.990;5.704;2023-08-30T06:43:46;16.1;69.0
80192;SHT31;69513;51.990;5.704;2023-08-30T06:46:16;16.1;69.3
80192;SHT31;69513;51.990;5.704;2023-08-30T06:48:45;16.1;69.2
80192;SHT31;69513;51.990;5.704;2023-08-30T06:51:16;16.1;69.2
80192;SHT31;69513;51.990;5.704;2023-08-30T06:53:45;16.1;69.2
80192;SHT31;69513;51.990;5.704;2023-08-30T06:56:16;16.1;69.3
80192;SHT31;69513;51.990;5.704;2023-08-30T06:58:46;16.2;69.8
80192;SHT31;69513;51.990;5.704;2023-08-30T07:01:16;16.2;69.9
80192;SHT31;69513;51.990;5.704;2023-08-30T07:03:47;16.2;69.8
80192;SHT31;69513;51.990;5.704;2023-08-30T07:06:17;16.2;70.5
80192;SHT31;69513;51.990;5.704;2023-08-30T07:08:46;16.2;70.7
80192;SHT31;69513;51.990;5.704;2023-08-30T07:11:16;16.2;71.4
80192;SHT31;69513;51.990;5.704;2023-08-30T07:13:45;16.2;71.8
80192;SHT31;69513;51.990;5.704;2023-08-30T07:16:15;16.2;71.6
80192;SHT31;69513;51.990;5.704;2023-08-30T07:18:45;16.2;72.1
80192;SHT31;69513;51.990;5.704;2023-08-30T07:21:14;16.2;72.3
80192;SHT31;69513;51.990;5.704;2023-08-30T07:23:44;16.2;72.6
80192;SHT31;69513;51.990;5.704;2023-08-30T07:26:14;16.2;72.6
80192;SHT31;69513;51.990;5.704;2023-08-30T07:28:46;16.2;72.9
80192;SHT31;69513;51.990;5.704;2023-08-30T07:31:16;16.2;73.2
80192;SHT31;69513;51.990;5.704;2023-08-30T07:33:47;16.2;73.4
80192;SHT31;69513;51.990;5.704;2023-08-30T07:36:16;16.2;73.4
80192;SHT31;69513;51.990;5.704;2023-08-30T07:38:46;16.2;73.5
80192;SHT31;69513;51.990;5.704;2023-08-30T07:41:15;16.2;73.4
80192;SHT31;69513;51.990;5.704;2023-08-30T07:43:45;16.1;73.5
80192;SHT31;69513;51.990;5.704;2023-08-30T07:46:15;16.1;73.7
80192;SHT31;69513;51.990;5.704;2023-08-30T07:48:44;16.1;73.9
80192;SHT31;69513;51.990;5.704;2023-08-30T07:51:14;16.1;74.2
80192;SHT31;69513;51.990;5.704;2023-08-30T07:53:43;16.1;74.1
80192;SHT31;69513;51.990;5.704;2023-08-30T07:56:13;16.1;74.4
80192;SHT31;69513;51.990;5.704;2023-08-30T07:58:42;16.1;74.4
80192;SHT31;69513;51.990;5.704;2023-08-30T08:01:12;16.1;74.6
80192;SHT31;69513;51.990;5.704;2023-08-30T08:03:42;16.1;74.6
80192;SHT31;69513;51.990;5.704;2023-08-30T08:06:12;16.1;74.7
80192;SHT31;69513;51.990;5.704;2023-08-30T08:08:44;16.1;74.8
80192;SHT31;69513;51.990;5.704;2023-08-30T08:11:14;16.1;74.7
80192;SHT31;69513;51.990;5.704;2023-08-30T08:13:44;16.1;74.9
80192;SHT31;69513;51.990;5.704;2023-08-30T08:16:13;16.1;74.9
80192;SHT31;69513;51.990;5.704;2023-08-30T08:18:43;16.1;75.1
80192;SHT31;69513;51.990;5.704;2023-08-30T08:21:13;16.1;75.3
80192;SHT31;69513;51.990;5.704;2023-08-30T08:23:44;16.1;75.1
80192;SHT31;69513;51.990;5.704;2023-08-30T08:26:17;16.1;75.6
80192;SHT31;69513;51.990;5.704;2023-08-30T08:28:47;16.1;75.8
80192;SHT31;69513;51.990;5.704;2023-08-30T08:31:16;16.1;76.1
80192;SHT31;69513;51.990;5.704;2023-08-30T08:33:46;16.1;76.4
80192;SHT31;69513;51.990;5.704;2023-08-30T08:36:16;16.1;76.4
80192;SHT31;69513;51.990;5.704;2023-08-30T08:38:45;16.2;76.4
80192;SHT31;69513;51.990;5.704;2023-08-30T08:41:16;16.2;76.4
80192;SHT31;69513;51.990;5.704;2023-08-30T08:43:48;16.2;76.2
80192;SHT31;69513;51.990;5.704;2023-08-30T08:46:22;16.2;76.1
80192;SHT31;69513;51.990;5.704;2023-08-30T08:48:54;16.2;76.1
80192;SHT31;69513;51.990;5.704;2023-08-30T08:51:28;16.3;76.1
80192;SHT31;69513;51.990;5.704;2023-08-30T08:54:03;16.3;76.1
80192;SHT31;69513;51.990;5.704;2023-08-30T08:56:37;16.3;76.0
80192;SHT31;69513;51.990;5.704;2023-08-30T08:59:09;16.3;76.0
80192;SHT31;69513;51.990;5.704;2023-08-30T09:01:40;16.3;75.8
80192;SHT31;69513;51.990;5.704;2023-08-30T09:04:11;16.3;75.7
80192;SHT31;69513;51.990;5.704;2023-08-30T09:06:40;16.3;75.9
80192;SHT31;69513;51.990;5.704;2023-08-30T09:09:12;16.3;75.9
80192;SHT31;69513;51.990;5.704;2023-08-30T09:11:42;16.3;76.0
80192;SHT31;69513;51.990;5.704;2023-08-30T09:14:12;16.3;76.2
80192;SHT31;69513;51.990;5.704;2023-08-30T09:16:42;16.3;76.3
80192;SHT31;69513;51.990;5.704;2023-08-30T09:19:12;16.3;76.3
80192;SHT31;69513;51.990;5.704;2023-08-30T09:21:52;16.3;76.4
80192;SHT31;69513;51.990;5.704;2023-08-30T09:24:24;16.3;76.4
80192;SHT31;69513;51.990;5.704;2023-08-30T09:26:55;16.3;76.4
80192;SHT31;69513;51.990;5.704;2023-08-30T09:29:24;16.4;76.5
80192;SHT31;69513;51.990;5.704;2023-08-30T09:31:56;16.4;76.6
80192;SHT31;69513;51.990;5.704;2023-08-30T09:34:27;16.4;76.9
80192;SHT31;69513;51.990;5.704;2023-08-30T09:36:58;16.4;77.0
80192;SHT31;69513;51.990;5.704;2023-08-30T09:39:29;16.4;77.3
80192;SHT31;69513;51.990;5.704;2023-08-30T09:42:03;16.4;77.4
80192;SHT31;69513;51.990;5.704;2023-08-30T09:44:35;16.4;77.7
80192;SHT31;69513;51.990;5.704;2023-08-30T09:47:06;16.4;77.9
80192;SHT31;69513;51.990;5.704;2023-08-30T09:49:45;16.4;78.1
80192;SHT31;69513;51.990;5.704;2023-08-30T09:52:22;16.4;78.3
80192;SHT31;69513;51.990;5.704;2023-08-30T09:54:54;16.4;78.2
80192;SHT31;69513;51.990;5.704;2023-08-30T09:57:26;16.5;78.3
80192;SHT31;69513;51.990;5.704;2023-08-30T09:59:57;16.5;78.5
80192;SHT31;69513;51.990;5.704;2023-08-30T10:02:29;16.5;78.8
80192;SHT31;69513;51.990;5.704;2023-08-30T10:05:00;16.6;79.2
80192;SHT31;69513;51.990;5.704;2023-08-30T10:07:37;16.6;79.4
80192;SHT31;69513;51.990;5.704;2023-08-30T10:10:10;16.6;79.3
80192;SHT31;69513;51.990;5.704;2023-08-30T10:12:41;16.7;79.4
80192;SHT31;69513;51.990;5.704;2023-08-30T10:15:15;16.8;79.5
80192;SHT31;69513;51.990;5.704;2023-08-30T10:17:45;16.8;79.5
80192;SHT31;69513;51.990;5.704;2023-08-30T10:20:16;16.8;80.1
80192;SHT31;69513;51.990;5.704;2023-08-30T10:22:48;16.9;80.3
80192;SHT31;69513;51.990;5.704;2023-08-30T10:25:24;17.0;80.4
80192;SHT31;69513;51.990;5.704;2023-08-30T10:27:56;17.0;79.9
80192;SHT31;69513;51.990;5.704;2023-08-30T10:30:27;17.1;79.9
80192;SHT31;69513;51.990;5.704;2023-08-30T10:32:58;17.1;80.2
80192;SHT31;69513;51.990;5.704;2023-08-30T10:35:30;17.2;80.4
80192;SHT31;69513;51.990;5.704;2023-08-30T10:38:01;17.2;80.0
80192;SHT31;69513;51.990;5.704;2023-08-30T10:40:31;17.3;80.3
80192;SHT31;69513;51.990;5.704;2023-08-30T10:43:04;17.4;80.5
80192;SHT31;69513;51.990;5.704;2023-08-30T10:45:34;17.4;80.4
80192;SHT31;69513;51.990;5.704;2023-08-30T10:48:06;17.5;80.1
80192;SHT31;69513;51.990;5.704;2023-08-30T10:50:36;17.5;80.1
80192;SHT31;69513;51.990;5.704;2023-08-30T10:53:15;17.6;80.1
80192;SHT31;69513;51.990;5.704;2023-08-30T10:56:07;17.6;80.3
80192;SHT31;69513;51.990;5.704;2023-08-30T10:58:45;17.7;80.0
80192;SHT31;69513;51.990;5.704;2023-08-30T11:01:16;17.7;80.2
80192;SHT31;69513;51.990;5.704;2023-08-30T11:03:46;17.8;78.8
80192;SHT31;69513;51.990;5.704;2023-08-30T11:06:16;17.8;77.1
80192;SHT31;69513;51.990;5.704;2023-08-30T11:08:48;17.8;77.8
80192;SHT31;69513;51.990;5.704;2023-08-30T11:11:18;17.8;77.0
80192;SHT31;69513;51.990;5.704;2023-08-30T11:13:49;17.8;74.5
80192;SHT31;69513;51.990;5.704;2023-08-30T11:16:23;17.8;76.2
80192;SHT31;69513;51.990;5.704;2023-08-30T11:18:52;17.9;75.2
80192;SHT31;69513;51.990;5.704;2023-08-30T11:21:23;17.9;75.0
80192;SHT31;69513;51.990;5.704;2023-08-30T11:23:56;17.8;75.4
80192;SHT31;69513;51.990;5.704;2023-08-30T11:26:27;17.9;75.3
80192;SHT31;69513;51.990;5.704;2023-08-30T11:28:57;17.9;74.1
80192;SHT31;69513;51.990;5.704;2023-08-30T11:31:28;17.9;76.8
80192;SHT31;69513;51.990;5.704;2023-08-30T11:33:59;17.9;75.9
80192;SHT31;69513;51.990;5.704;2023-08-30T11:36:32;18.0;77.7
80192;SHT31;69513;51.990;5.704;2023-08-30T11:39:07;18.0;77.3
80192;SHT31;69513;51.990;5.704;2023-08-30T11:41:38;18.0;72.2
80192;SHT31;69513;51.990;5.704;2023-08-30T11:44:10;18.1;75.3
80192;SHT31;69513;51.990;5.704;2023-08-30T11:46:40;18.1;74.3
80192;SHT31;69513;51.990;5.704;2023-08-30T11:49:11;18.2;76.6
80192;SHT31;69513;51.990;5.704;2023-08-30T11:51:44;18.2;73.4
80192;SHT31;69513;51.990;5.704;2023-08-30T11:54:15;18.3;71.6
80192;SHT31;69513;51.990;5.704;2023-08-30T11:56:46;18.4;71.8
80192;SHT31;69513;51.990;5.704;2023-08-30T11:59:22;18.4;71.7
80192;SHT31;69513;51.990;5.704;2023-08-30T12:01:55;18.5;71.3
80192;SHT31;69513;51.990;5.704;2023-08-30T12:04:24;18.5;67.5
80192;SHT31;69513;51.990;5.704;2023-08-30T12:06:55;18.5;70.7
80192;SHT31;69513;51.990;5.704;2023-08-30T12:09:30;18.6;70.2
80192;SHT31;69513;51.990;5.704;2023-08-30T12:12:10;18.6;72.2
80192;SHT31;69513;51.990;5.704;2023-08-30T12:14:40;18.6;69.9
80192;SHT31;69513;51.990;5.704;2023-08-30T12:17:10;18.6;66.7
80192;SHT31;69513;51.990;5.704;2023-08-30T12:19:42;18.7;67.7
80192;SHT31;69513;51.990;5.704;2023-08-30T12:22:11;18.7;66.3
80192;SHT31;69513;51.990;5.704;2023-08-30T12:24:46;18.7;68.0
80192;SHT31;69513;51.990;5.704;2023-08-30T12:27:18;18.7;67.8
80192;SHT31;69513;51.990;5.704;2023-08-30T12:29:53;18.7;69.1
80192;SHT31;69513;51.990;5.704;2023-08-30T12:32:22;18.8;66.4
80192;SHT31;69513;51.990;5.704;2023-08-30T12:34:52;18.8;64.8
80192;SHT31;69513;51.990;5.704;2023-08-30T12:37:21;18.8;66.2
80192;SHT31;69513;51.990;5.704;2023-08-30T12:39:53;18.7;67.4
80192;SHT31;69513;51.990;5.704;2023-08-30T12:42:23;18.8;67.5
80192;SHT31;69513;51.990;5.704;2023-08-30T12:44:53;18.8;69.9
80192;SHT31;69513;51.990;5.704;2023-08-30T12:47:24;18.8;69.2
80192;SHT31;69513;51.990;5.704;2023-08-30T12:49:56;18.9;69.9
80192;SHT31;69513;51.990;5.704;2023-08-30T12:52:26;18.9;68.2
80192;SHT31;69513;51.990;5.704;2023-08-30T12:54:55;19.0;67.5
80192;SHT31;69513;51.990;5.704;2023-08-30T12:57:27;19.0;67.4
80192;SHT31;69513;51.990;5.704;2023-08-30T12:59:56;19.0;67.1
80192;SHT31;69513;51.990;5.704;2023-08-30T13:02:27;19.1;68.9
80192;SHT31;69513;51.990;5.704;2023-08-30T13:04:56;19.2;68.5
80192;SHT31;69513;51.990;5.704;2023-08-30T13:07:27;19.4;68.9
80192;SHT31;69513;51.990;5.704;2023-08-30T13:09:56;19.6;66.4
80192;SHT31;69513;51.990;5.704;2023-08-30T13:12:28;19.8;66.8
80192;SHT31;69513;51.990;5.704;2023-08-30T13:14:58;20.0;65.4
80192;SHT31;69513;51.990;5.704;2023-08-30T13:17:27;20.1;66.4
80192;SHT31;69513;51.990;5.704;2023-08-30T13:19:57;20.2;64.1
80192;SHT31;69513;51.990;5.704;2023-08-30T13:22:31;20.3;61.7
80192;SHT31;69513;51.990;5.704;2023-08-30T13:25:02;20.3;60.8
80192;SHT31;69513;51.990;5.704;2023-08-30T13:27:33;20.4;59.6
80192;SHT31;69513;51.990;5.704;2023-08-30T13:30:04;20.5;61.0
80192;SHT31;69513;51.990;5.704;2023-08-30T13:32:34;20.6;64.0
80192;SHT31;69513;51.990;5.704;2023-08-30T13:35:05;20.6;56.0
80192;SHT31;69513;51.990;5.704;2023-08-30T13:37:35;20.7;53.6
80192;SHT31;69513;51.990;5.704;2023-08-30T13:40:08;20.7;55.5
80192;SHT31;69513;51.990;5.704;2023-08-30T13:42:39;20.7;57.7
80192;SHT31;69513;51.990;5.704;2023-08-30T13:45:13;20.7;55.2
80192;SHT31;69513;51.990;5.704;2023-08-30T13:47:45;20.7;57.9
80192;SHT31;69513;51.990;5.704;2023-08-30T13:50:15;20.7;55.2
80192;SHT31;69513;51.990;5.704;2023-08-30T13:52:45;20.7;58.8
80192;SHT31;69513;51.990;5.704;2023-08-30T13:55:15;20.6;55.7
80192;SHT31;69513;51.990;5.704;2023-08-30T13:57:46;20.6;58.4
80192;SHT31;69513;51.990;5.704;2023-08-30T14:00:22;20.6;59.8
80192;SHT31;69513;51.990;5.704;2023-08-30T14:02:53;20.6;55.9
80192;SHT31;69513;51.990;5.704;2023-08-30T14:05:22;20.5;60.6
80192;SHT31;69513;51.990;5.704;2023-08-30T14:07:52;20.5;55.5
80192;SHT31;69513;51.990;5.704;2023-08-30T14:10:22;20.5;56.9
80192;SHT31;69513;51.990;5.704;2023-08-30T14:12:52;20.5;55.1
80192;SHT31;69513;51.990;5.704;2023-08-30T14:15:23;20.5;55.2
80192;SHT31;69513;51.990;5.704;2023-08-30T14:17:52;20.5;54.5
80192;SHT31;69513;51.990;5.704;2023-08-30T14:20:22;20.5;56.2
80192;SHT31;69513;51.990;5.704;2023-08-30T14:22:52;20.5;55.2
80192;SHT31;69513;51.990;5.704;2023-08-30T14:25:22;20.5;57.0
80192;SHT31;69513;51.990;5.704;2023-08-30T14:27:51;20.5;59.0
80192;SHT31;69513;51.990;5.704;2023-08-30T14:30:25;20.6;56.4
80192;SHT31;69513;51.990;5.704;2023-08-30T14:32:55;20.6;56.3
80192;SHT31;69513;51.990;5.704;2023-08-30T14:35:25;20.7;56.4
80192;SHT31;69513;51.990;5.704;2023-08-30T14:37:57;20.7;56.6
80192;SHT31;69513;51.990;5.704;2023-08-30T14:40:30;20.7;53.9
80192;SHT31;69513;51.990;5.704;2023-08-30T14:42:59;20.7;56.3
80192;SHT31;69513;51.990;5.704;2023-08-30T14:45:30;20.7;54.7
80192;SHT31;69513;51.990;5.704;2023-08-30T14:47:59;20.7;52.0
80192;SHT31;69513;51.990;5.704;2023-08-30T14:50:30;20.6;53.4
80192;SHT31;69513;51.990;5.704;2023-08-30T14:52:59;20.6;55.5
80192;SHT31;69513;51.990;5.704;2023-08-30T14:55:29;20.5;54.3
80192;SHT31;69513;51.990;5.704;2023-08-30T14:57:59;20.4;54.4
80192;SHT31;69513;51.990;5.704;2023-08-30T15:00:28;20.3;55.3
80192;SHT31;69513;51.990;5.704;2023-08-30T15:02:58;20.3;56.2
80192;SHT31;69513;51.990;5.704;2023-08-30T15:05:28;20.3;56.9
80192;SHT31;69513;51.990;5.704;2023-08-30T15:07:58;20.2;54.0
80192;SHT31;69513;51.990;5.704;2023-08-30T15:10:28;20.2;54.2
80192;SHT31;69513;51.990;5.704;2023-08-30T15:12:58;20.1;53.3
80192;SHT31;69513;51.990;5.704;2023-08-30T15:15:27;20.1;55.3
80192;SHT31;69513;51.990;5.704;2023-08-30T15:17:57;20.1;54.7
80192;SHT31;69513;51.990;5.704;2023-08-30T15:20:27;20.0;55.7
80192;SHT31;69513;51.990;5.704;2023-08-30T15:22:57;20.0;54.5
80192;SHT31;69513;51.990;5.704;2023-08-30T15:25:28;20.0;55.2
80192;SHT31;69513;51.990;5.704;2023-08-30T15:27:59;19.9;57.2
80192;SHT31;69513;51.990;5.704;2023-08-30T15:30:28;19.9;58.4
80192;SHT31;69513;51.990;5.704;2023-08-30T15:32:58;19.9;57.7
80192;SHT31;69513;51.990;5.704;2023-08-30T15:35:30;19.9;56.4
80192;SHT31;69513;51.990;5.704;2023-08-30T15:38:00;19.8;56.0
80192;SHT31;69513;51.990;5.704;2023-08-30T15:40:31;19.8;56.7
80192;SHT31;69513;51.990;5.704;2023-08-30T15:43:05;19.7;58.7
80192;SHT31;69513;51.990;5.704;2023-08-30T15:45:35;19.7;57.5
80192;SHT31;69513;51.990;5.704;2023-08-30T15:48:07;19.6;60.3
80192;SHT31;69513;51.990;5.704;2023-08-30T15:50:38;19.5;59.8
80192;SHT31;69513;51.990;5.704;2023-08-30T15:53:08;19.4;61.0
80192;SHT31;69513;51.990;5.704;2023-08-30T15:55:38;19.3;63.1
80192;SHT31;69513;51.990;5.704;2023-08-30T15:58:08;19.3;62.6
80192;SHT31;69513;51.990;5.704;2023-08-30T16:00:37;19.2;64.3
80192;SHT31;69513;51.990;5.704;2023-08-30T16:03:10;19.2;64.9
80192;SHT31;69513;51.990;5.704;2023-08-30T16:05:40;19.2;66.1
80192;SHT31;69513;51.990;5.704;2023-08-30T16:08:11;19.2;65.5
80192;SHT31;69513;51.990;5.704;2023-08-30T16:10:42;19.2;67.5
80192;SHT31;69513;51.990;5.704;2023-08-30T16:13:11;19.2;66.5
80192;SHT31;69513;51.990;5.704;2023-08-30T16:15:41;19.2;67.9
80192;SHT31;69513;51.990;5.704;2023-08-30T16:18:11;19.2;67.0
80192;SHT31;69513;51.990;5.704;2023-08-30T16:20:41;19.4;68.5
80192;SHT31;69513;51.990;5.704;2023-08-30T16:23:11;19.7;64.7
80192;SHT31;69513;51.990;5.704;2023-08-30T16:25:40;20.1;61.7
80192;SHT31;69513;51.990;5.704;2023-08-30T16:28:12;20.4;62.4
80192;SHT31;69513;51.990;5.704;2023-08-30T16:30:41;20.7;61.5
80192;SHT31;69513;51.990;5.704;2023-08-30T16:33:11;21.1;59.7
80192;SHT31;69513;51.990;5.704;2023-08-30T16:35:45;21.4;56.0
80192;SHT31;69513;51.990;5.704;2023-08-30T16:38:15;21.7;56.3
80192;SHT31;69513;51.990;5.704;2023-08-30T16:40:45;21.9;56.7
80192;SHT31;69513;51.990;5.704;2023-08-30T16:43:15;22.1;54.3
80192;SHT31;69513;51.990;5.704;2023-08-30T16:45:44;22.1;51.6
80192;SHT31;69513;51.990;5.704;2023-08-30T16:48:15;22.1;54.1
80192;SHT31;69513;51.990;5.704;2023-08-30T16:50:44;21.9;53.3
80192;SHT31;69513;51.990;5.704;2023-08-30T16:53:19;21.7;52.7
80192;SHT31;69513;51.990;5.704;2023-08-30T16:55:48;21.5;54.2
80192;SHT31;69513;51.990;5.704;2023-08-30T16:58:18;21.3;55.2
80192;SHT31;69513;51.990;5.704;2023-08-30T17:00:48;21.1;55.0
80192;SHT31;69513;51.990;5.704;2023-08-30T17:03:18;20.9;55.3
80192;SHT31;69513;51.990;5.704;2023-08-30T17:05:48;20.7;57.7
80192;SHT31;69513;51.990;5.704;2023-08-30T17:08:20;20.6;55.6
80192;SHT31;69513;51.990;5.704;2023-08-30T17:10:50;20.4;58.3
80192;SHT31;69513;51.990;5.704;2023-08-30T17:13:20;20.3;59.9
80192;SHT31;69513;51.990;5.704;2023-08-30T17:15:50;20.2;59.1
80192;SHT31;69513;51.990;5.704;2023-08-30T17:18:25;20.1;57.5
80192;SHT31;69513;51.990;5.704;2023-08-30T17:20:56;20.0;60.9
80192;SHT31;69513;51.990;5.704;2023-08-30T17:23:25;19.9;60.3
80192;SHT31;69513;51.990;5.704;2023-08-30T17:25:55;19.8;61.2
80192;SHT31;69513;51.990;5.704;2023-08-30T17:28:26;19.8;61.4
80192;SHT31;69513;51.990;5.704;2023-08-30T17:30:57;19.7;62.5
80192;SHT31;69513;51.990;5.704;2023-08-30T17:33:29;19.6;62.6
80192;SHT31;69513;51.990;5.704;2023-08-30T17:36:01;19.6;61.9
80192;SHT31;69513;51.990;5.704;2023-08-30T17:38:32;19.5;62.0
80192;SHT31;69513;51.990;5.704;2023-08-30T17:41:09;19.5;62.3
80192;SHT31;69513;51.990;5.704;2023-08-30T17:43:41;19.4;62.2
80192;SHT31;69513;51.990;5.704;2023-08-30T17:46:10;19.3;62.9
80192;SHT31;69513;51.990;5.704;2023-08-30T17:48:42;19.3;62.8
80192;SHT31;69513;51.990;5.704;2023-08-30T17:51:14;19.2;63.5
80192;SHT31;69513;51.990;5.704;2023-08-30T17:53:43;19.2;63.7
80192;SHT31;69513;51.990;5.704;2023-08-30T17:56:18;19.1;64.3
80192;SHT31;69513;51.990;5.704;2023-08-30T17:58:50;19.1;63.9
80192;SHT31;69513;51.990;5.704;2023-08-30T18:01:20;19.0;64.5
80192;SHT31;69513;51.990;5.704;2023-08-30T18:03:50;19.0;64.2
80192;SHT31;69513;51.990;5.704;2023-08-30T18:06:21;18.9;63.9
80192;SHT31;69513;51.990;5.704;2023-08-30T18:08:51;18.8;63.5
80192;SHT31;69513;51.990;5.704;2023-08-30T18:11:23;18.8;63.2
80192;SHT31;69513;51.990;5.704;2023-08-30T18:13:54;18.7;63.0
80192;SHT31;69513;51.990;5.704;2023-08-30T18:16:24;18.6;60.7
80192;SHT31;69513;51.990;5.704;2023-08-30T18:18:53;18.6;61.4
80192;SHT31;69513;51.990;5.704;2023-08-30T18:21:24;18.5;61.1
80192;SHT31;69513;51.990;5.704;2023-08-30T18:24:14;18.4;61.0
80192;SHT31;69513;51.990;5.704;2023-08-30T18:26:48;18.4;63.2
80192;SHT31;69513;51.990;5.704;2023-08-30T18:29:20;18.3;61.2
80192;SHT31;69513;51.990;5.704;2023-08-30T18:31:52;18.2;63.0
80192;SHT31;69513;51.990;5.704;2023-08-30T18:34:24;18.1;63.1
80192;SHT31;69513;51.990;5.704;2023-08-30T18:36:58;18.1;63.1
80192;SHT31;69513;51.990;5.704;2023-08-30T18:39:28;18.0;62.1
80192;SHT31;69513;51.990;5.704;2023-08-30T18:41:59;18.0;63.4
80192;SHT31;69513;51.990;5.704;2023-08-30T18:44:29;18.0;63.6
80192;SHT31;69513;51.990;5.704;2023-08-30T18:47:00;17.9;64.0
80192;SHT31;69513;51.990;5.704;2023-08-30T18:49:30;17.9;63.3
80192;SHT31;69513;51.990;5.704;2023-08-30T18:52:01;17.8;63.8
80192;SHT31;69513;51.990;5.704;2023-08-30T18:54:31;17.8;63.8
80192;SHT31;69513;51.990;5.704;2023-08-30T18:57:01;17.7;64.2
80192;SHT31;69513;51.990;5.704;2023-08-30T18:59:31;17.7;64.5
80192;SHT31;69513;51.990;5.704;2023-08-30T19:02:02;17.6;64.7
80192;SHT31;69513;51.990;5.704;2023-08-30T19:04:31;17.6;64.6
80192;SHT31;69513;51.990;5.704;2023-08-30T19:07:02;17.5;64.8
80192;SHT31;69513;51.990;5.704;2023-08-30T19:09:37;17.5;65.0
80192;SHT31;69513;51.990;5.704;2023-08-30T19:12:13;17.5;65.0
80192;SHT31;69513;51.990;5.704;2023-08-30T19:14:42;17.4;64.7
80192;SHT31;69513;51.990;5.704;2023-08-30T19:17:13;17.4;64.7
80192;SHT31;69513;51.990;5.704;2023-08-30T19:19:44;17.3;65.3
80192;SHT31;69513;51.990;5.704;2023-08-30T19:22:13;17.3;65.7
80192;SHT31;69513;51.990;5.704;2023-08-30T19:24:44;17.3;65.8
80192;SHT31;69513;51.990;5.704;2023-08-30T19:27:15;17.2;65.9
80192;SHT31;69513;51.990;5.704;2023-08-30T19:29:46;17.2;66.0
80192;SHT31;69513;51.990;5.704;2023-08-30T19:32:15;17.2;66.5
80192;SHT31;69513;51.990;5.704;2023-08-30T19:34:47;17.2;67.0
80192;SHT31;69513;51.990;5.704;2023-08-30T19:37:19;17.2;66.8
80192;SHT31;69513;51.990;5.704;2023-08-30T19:39:57;17.1;66.9
80192;SHT31;69513;51.990;5.704;2023-08-30T19:42:32;17.1;66.9
80192;SHT31;69513;51.990;5.704;2023-08-30T19:45:04;17.1;66.7
80192;SHT31;69513;51.990;5.704;2023-08-30T19:47:35;17.1;67.6
80192;SHT31;69513;51.990;5.704;2023-08-30T19:50:08;17.1;67.5
80192;SHT31;69513;51.990;5.704;2023-08-30T19:52:38;17.1;68.0
80192;SHT31;69513;51.990;5.704;2023-08-30T19:55:10;17.1;67.7
80192;SHT31;69513;51.990;5.704;2023-08-30T19:57:40;17.1;67.9
80192;SHT31;69513;51.990;5.704;2023-08-30T20:00:16;17.1;68.0
80192;SHT31;69513;51.990;5.704;2023-08-30T20:02:48;17.1;66.5
80192;SHT31;69513;51.990;5.704;2023-08-30T20:05:18;17.1;65.8
80192;SHT31;69513;51.990;5.704;2023-08-30T20:07:48;17.1;66.0
80192;SHT31;69513;51.990;5.704;2023-08-30T20:10:20;17.0;66.6
80192;SHT31;69513;51.990;5.704;2023-08-30T20:12:51;17.0;67.7
80192;SHT31;69513;51.990;5.704;2023-08-30T20:15:22;17.0;67.6
80192;SHT31;69513;51.990;5.704;2023-08-30T20:17:56;17.0;66.5
80192;SHT31;69513;51.990;5.704;2023-08-30T20:20:25;17.0;66.9
80192;SHT31;69513;51.990;5.704;2023-08-30T20:22:55;17.0;65.9
80192;SHT31;69513;51.990;5.704;2023-08-30T20:25:24;17.0;65.8
80192;SHT31;69513;51.990;5.704;2023-08-30T20:27:54;16.9;65.4
80192;SHT31;69513;51.990;5.704;2023-08-30T20:30:23;16.9;64.9
80192;SHT31;69513;51.990;5.704;2023-08-30T20:32:54;16.9;65.9
80192;SHT31;69513;51.990;5.704;2023-08-30T20:35:27;16.8;65.1
80192;SHT31;69513;51.990;5.704;2023-08-30T20:37:56;16.8;65.6
80192;SHT31;69513;51.990;5.704;2023-08-30T20:40:29;16.8;65.2
80192;SHT31;69513;51.990;5.704;2023-08-30T20:42:59;16.7;66.0
80192;SHT31;69513;51.990;5.704;2023-08-30T20:45:30;16.7;66.2
80192;SHT31;69513;51.990;5.704;2023-08-30T20:48:00;16.7;65.0
80192;SHT31;69513;51.990;5.704;2023-08-30T20:50:34;16.6;66.5
80192;SHT31;69513;51.990;5.704;2023-08-30T20:53:06;16.6;66.3
80192;SHT31;69513;51.990;5.704;2023-08-30T20:55:43;16.7;66.8
80192;SHT31;69513;51.990;5.704;2023-08-30T20:58:14;16.7;66.5
80192;SHT31;69513;51.990;5.704;2023-08-30T21:00:55;16.8;66.2
80192;SHT31;69513;51.990;5.704;2023-08-30T21:03:26;16.8;65.4
80192;SHT31;69513;51.990;5.704;2023-08-30T21:05:56;16.9;65.6
80192;SHT31;69513;51.990;5.704;2023-08-30T21:08:27;16.9;65.4
80192;SHT31;69513;51.990;5.704;2023-08-30T21:10:58;17.0;64.9
80192;SHT31;69513;51.990;5.704;2023-08-30T21:13:28;17.0;64.6
80192;SHT31;69513;51.990;5.704;2023-08-30T21:15:59;17.0;64.8
80192;SHT31;69513;51.990;5.704;2023-08-30T21:18:30;17.0;64.6
80192;SHT31;69513;51.990;5.704;2023-08-30T21:21:00;17.1;63.9
80192;SHT31;69513;51.990;5.704;2023-08-30T21:23:32;17.1;63.7
80192;SHT31;69513;51.990;5.704;2023-08-30T21:26:03;17.1;63.8
80192;SHT31;69513;51.990;5.704;2023-08-30T21:28:34;17.1;63.5
80192;SHT31;69513;51.990;5.704;2023-08-30T21:31:06;17.1;63.2
80192;SHT31;69513;51.990;5.704;2023-08-30T21:33:36;17.1;63.2
80192;SHT31;69513;51.990;5.704;2023-08-30T21:36:13;17.2;62.9
80192;SHT31;69513;51.990;5.704;2023-08-30T21:38:42;17.2;62.9
80192;SHT31;69513;51.990;5.704;2023-08-30T21:41:12;17.2;63.0
80192;SHT31;69513;51.990;5.704;2023-08-30T21:43:43;17.2;62.6
80192;SHT31;69513;51.990;5.704;2023-08-30T21:46:13;17.1;62.7
80192;SHT31;69513;51.990;5.704;2023-08-30T21:48:44;17.0;62.7
80192;SHT31;69513;51.990;5.704;2023-08-30T21:51:14;16.9;62.9
80192;SHT31;69513;51.990;5.704;2023-08-30T21:53:44;16.8;62.4
80192;SHT31;69513;51.990;5.704;2023-08-30T21:56:14;16.7;62.9
80192;SHT31;69513;51.990;5.704;2023-08-30T21:58:44;16.6;63.2
80192;SHT31;69513;51.990;5.704;2023-08-30T22:01:14;16.5;63.7
80192;SHT31;69513;51.990;5.704;2023-08-30T22:03:44;16.5;63.6
80192;SHT31;69513;51.990;5.704;2023-08-30T22:06:15;16.4;63.8